createdAt,value
2024-05-09T00:02:02.861Z,9.36
2024-05-09T00:07:24.770Z,9.28
2024-05-09T00:12:46.644Z,9.21
2024-05-09T00:18:08.876Z,9.23
2024-05-09T00:23:31.007Z,9.16
2024-05-09T00:28:53.036Z,9.15
2024-05-09T00:34:15.009Z,9.25
2024-05-09T00:39:37.459Z,9.06
2024-05-09T00:44:59.369Z,9.02
2024-05-09T00:50:29.612Z,8.94
2024-05-09T00:55:58.193Z,8.88
2024-05-09T01:01:23.549Z,8.80
2024-05-09T01:06:45.464Z,8.87
2024-05-09T01:12:07.429Z,8.79
2024-05-09T01:17:29.720Z,8.74
2024-05-09T01:22:54.103Z,8.71
2024-05-09T01:28:16.309Z,8.61
2024-05-09T01:33:38.783Z,8.63
2024-05-09T01:39:01.001Z,8.61
2024-05-09T01:44:23.022Z,8.56
2024-05-09T01:49:45.068Z,8.47
2024-05-09T01:55:07.297Z,8.37
2024-05-09T02:00:38.159Z,8.42
2024-05-09T02:06:03.312Z,8.35
2024-05-09T02:11:25.453Z,8.20
2024-05-09T02:16:47.858Z,8.12
2024-05-09T02:22:09.762Z,8.08
2024-05-09T02:27:31.658Z,8.05
2024-05-09T02:32:53.696Z,8.07
2024-05-09T02:38:15.712Z,8.01
2024-05-09T02:43:37.605Z,8.03
2024-05-09T02:48:59.607Z,7.90
2024-05-09T02:54:21.553Z,7.76
2024-05-09T02:59:43.627Z,7.71
2024-05-09T03:05:05.747Z,7.63
2024-05-09T03:10:29.251Z,7.74
2024-05-09T03:15:59.792Z,7.72
2024-05-09T03:21:21.877Z,7.62
2024-05-09T03:26:43.849Z,7.66
2024-05-09T03:32:06.102Z,7.77
2024-05-09T03:37:28.218Z,7.84
2024-05-09T03:42:50.337Z,7.85
2024-05-09T03:48:12.759Z,7.81
2024-05-09T03:53:35.055Z,7.72
2024-05-09T03:58:57.816Z,7.65
2024-05-09T04:04:19.765Z,7.61
2024-05-09T04:09:41.719Z,7.68
2024-05-09T04:15:03.899Z,7.78
2024-05-09T04:20:36.004Z,7.79
2024-05-09T04:26:04.296Z,7.82
2024-05-09T04:31:26.444Z,7.81
2024-05-09T04:36:48.343Z,7.86
2024-05-09T04:42:10.316Z,7.87
2024-05-09T04:47:32.543Z,7.89
2024-05-09T04:52:54.583Z,7.89
2024-05-09T04:58:16.512Z,7.95
2024-05-09T05:03:38.761Z,8.02
2024-05-09T05:09:00.845Z,8.13
2024-05-09T05:14:22.853Z,8.26
2024-05-09T05:19:45.052Z,8.40
2024-05-09T05:25:07.208Z,8.58
2024-05-09T05:30:34.308Z,8.69
2024-05-09T05:35:57.317Z,8.86
2024-05-09T05:41:19.315Z,9.08
2024-05-09T05:46:41.465Z,9.31
2024-05-09T05:52:03.489Z,9.46
2024-05-09T05:57:25.397Z,9.71
2024-05-09T06:02:47.376Z,9.92
2024-05-09T06:08:09.514Z,10.16
2024-05-09T06:13:31.580Z,10.27
2024-05-09T06:18:53.661Z,10.58
2024-05-09T06:24:15.818Z,10.84
2024-05-09T06:29:40.658Z,10.99
2024-05-09T06:35:02.648Z,11.25
2024-05-09T06:40:29.429Z,11.52
2024-05-09T06:45:57.394Z,11.84
2024-05-09T06:51:19.339Z,12.14
2024-05-09T06:56:41.346Z,12.33
2024-05-09T07:02:06.962Z,12.51
2024-05-09T07:07:28.910Z,12.72
2024-05-09T07:12:50.774Z,12.99
2024-05-09T07:18:17.187Z,13.31
2024-05-09T07:23:41.004Z,13.61
2024-05-09T07:29:03.864Z,13.87
2024-05-09T07:34:25.906Z,14.22
2024-05-09T07:39:47.975Z,14.53
2024-05-09T07:45:24.180Z,14.48
2024-05-09T07:56:17.680Z,15.45
2024-05-09T08:01:40.072Z,15.66
2024-05-09T08:07:02.050Z,15.96
2024-05-09T08:12:23.998Z,16.16
2024-05-09T08:17:45.942Z,16.31
2024-05-09T08:23:08.143Z,16.67
2024-05-09T08:28:30.137Z,16.83
2024-05-09T08:33:52.347Z,17.05
2024-05-09T08:39:14.441Z,17.31
2024-05-09T08:44:37.148Z,17.69
2024-05-09T08:50:02.137Z,17.86
2024-05-09T08:55:25.468Z,17.93
2024-05-09T09:00:47.952Z,18.29
2024-05-09T09:06:14.580Z,18.23
2024-05-09T09:11:36.531Z,18.94
2024-05-09T09:16:58.471Z,18.76
2024-05-09T09:22:21.701Z,18.79
2024-05-09T09:27:44.000Z,18.83
2024-05-09T09:33:06.766Z,19.41
2024-05-09T09:38:31.245Z,20.38
2024-05-09T09:43:53.979Z,21.10
2024-05-09T09:49:17.105Z,21.11
2024-05-09T09:54:39.637Z,22.10
2024-05-09T10:00:01.827Z,21.18
2024-05-09T10:05:24.431Z,21.82
2024-05-09T10:10:47.952Z,22.59
2024-05-09T10:16:11.230Z,23.83
2024-05-09T10:21:33.403Z,23.38
2024-05-09T10:26:56.049Z,23.17
2024-05-09T10:32:26.742Z,22.06
2024-05-09T10:37:50.710Z,23.00
2024-05-09T10:43:19.631Z,24.66
2024-05-09T10:48:43.210Z,24.45
2024-05-09T10:54:05.206Z,24.53
2024-05-09T10:59:33.306Z,25.49
2024-05-09T11:04:55.386Z,24.84
2024-05-09T11:10:24.923Z,24.22
2024-05-09T11:15:53.905Z,25.19
2024-05-09T11:21:15.832Z,26.06
2024-05-09T11:26:40.987Z,26.86
2024-05-09T11:32:03.020Z,26.72
2024-05-09T11:37:25.103Z,25.22
2024-05-09T11:42:48.754Z,23.88
2024-05-09T11:48:12.816Z,22.92
2024-05-09T11:53:34.737Z,23.44
2024-05-09T11:58:56.657Z,24.26
2024-05-09T12:04:18.938Z,23.28
2024-05-09T12:09:41.468Z,23.37
2024-05-09T12:15:03.570Z,23.14
2024-05-09T12:20:33.065Z,24.63
2024-05-09T12:25:59.173Z,26.44
2024-05-09T12:31:21.126Z,26.87
2024-05-09T12:36:43.494Z,25.27
2024-05-09T12:42:05.610Z,26.67
2024-05-09T12:47:27.840Z,27.30
2024-05-09T12:52:49.837Z,25.96
2024-05-09T12:58:12.250Z,24.43
2024-05-09T13:03:34.463Z,24.46
2024-05-09T13:08:56.675Z,26.47
2024-05-09T13:14:18.608Z,28.93
2024-05-09T13:19:40.479Z,30.99
2024-05-09T13:25:02.494Z,31.95
2024-05-09T13:30:30.046Z,31.29
2024-05-09T13:36:00.425Z,30.05
2024-05-09T13:41:22.450Z,28.31
2024-05-09T13:46:44.485Z,26.98
2024-05-09T13:52:06.602Z,27.40
2024-05-09T13:57:28.695Z,26.99
2024-05-09T14:02:50.634Z,29.10
2024-05-09T14:08:15.127Z,28.37
2024-05-09T14:13:37.156Z,31.28
2024-05-09T14:18:59.719Z,33.75
2024-05-09T14:24:21.685Z,35.02
2024-05-09T14:29:43.647Z,33.43
2024-05-09T14:35:06.057Z,32.52
2024-05-09T14:40:38.797Z,31.13
2024-05-09T14:46:04.875Z,30.10
2024-05-09T14:51:26.774Z,32.08
2024-05-09T14:56:48.897Z,31.67
2024-05-09T15:02:11.100Z,32.89
2024-05-09T15:07:34.085Z,32.08
2024-05-09T15:12:56.024Z,30.06
2024-05-09T15:18:18.284Z,28.55
2024-05-09T15:23:40.498Z,28.30
2024-05-09T15:29:02.537Z,27.14
2024-05-09T15:34:24.477Z,27.98
2024-05-09T15:39:46.388Z,28.76
2024-05-09T15:45:08.263Z,27.14
2024-05-09T15:50:37.127Z,24.25
2024-05-09T15:56:02.366Z,24.66
2024-05-09T16:01:24.529Z,24.69
2024-05-09T16:06:47.977Z,24.28
2024-05-09T16:12:09.903Z,23.61
2024-05-09T16:17:31.956Z,23.02
2024-05-09T16:22:54.379Z,22.70
2024-05-09T16:28:18.672Z,22.57
2024-05-09T16:33:40.985Z,22.15
2024-05-09T16:39:03.112Z,22.14
2024-05-09T16:44:25.108Z,21.88
2024-05-09T16:49:47.225Z,21.58
2024-05-09T16:55:09.207Z,21.32
2024-05-09T17:00:39.514Z,21.23
2024-05-09T17:06:06.330Z,21.14
2024-05-09T17:11:28.242Z,21.00
2024-05-09T17:16:50.238Z,20.79
2024-05-09T17:22:12.566Z,20.69
2024-05-09T17:27:34.729Z,20.65
2024-05-09T17:32:56.731Z,20.53
2024-05-09T17:38:19.483Z,20.32
2024-05-09T17:43:41.399Z,20.17
2024-05-09T17:49:03.821Z,20.00
2024-05-09T17:54:25.900Z,19.91
2024-05-09T17:59:49.903Z,19.76
2024-05-09T18:05:11.886Z,19.52
2024-05-09T18:10:37.962Z,19.37
2024-05-09T18:16:02.014Z,19.21
2024-05-09T18:21:24.421Z,19.02
2024-05-09T18:26:46.426Z,18.79
2024-05-09T18:32:08.590Z,18.64
2024-05-09T18:37:30.586Z,18.53
2024-05-09T18:42:52.629Z,18.38
2024-05-09T18:48:17.403Z,18.21
2024-05-09T18:53:39.874Z,18.00
2024-05-09T18:59:03.387Z,17.82
2024-05-09T19:04:25.601Z,17.64
2024-05-09T19:09:47.887Z,17.30
2024-05-09T19:15:09.826Z,16.94
2024-05-09T19:20:34.663Z,16.50
2024-05-09T19:25:58.078Z,16.27
2024-05-09T19:31:20.072Z,15.99
2024-05-09T19:36:42.216Z,15.78
2024-05-09T19:42:05.145Z,15.55
2024-05-09T19:47:27.306Z,15.41
2024-05-09T19:52:49.361Z,15.13
2024-05-09T19:58:12.483Z,15.10
2024-05-09T20:03:37.413Z,14.99
2024-05-09T20:08:59.650Z,14.76
2024-05-09T20:14:22.334Z,14.75
2024-05-09T20:19:44.470Z,14.68
2024-05-09T20:25:07.018Z,14.49
2024-05-09T20:30:32.792Z,14.35
2024-05-09T20:36:01.606Z,14.23
2024-05-09T20:41:24.123Z,14.08
2024-05-09T20:46:46.072Z,13.97
2024-05-09T20:52:08.205Z,13.75
2024-05-09T20:57:30.509Z,13.85
2024-05-09T21:02:52.544Z,14.04
2024-05-09T21:08:14.560Z,13.69
2024-05-09T21:13:36.490Z,13.55
2024-05-09T21:18:58.412Z,13.43
2024-05-09T21:24:20.349Z,13.26
2024-05-09T21:29:42.394Z,13.23
2024-05-09T21:35:05.285Z,13.19
2024-05-09T21:40:33.926Z,13.26
2024-05-09T21:45:57.781Z,13.19
2024-05-09T21:51:19.720Z,13.15
2024-05-09T21:56:41.881Z,13.09
2024-05-09T22:02:04.342Z,12.99
2024-05-09T22:07:26.457Z,12.91
2024-05-09T22:12:48.446Z,12.77
2024-05-09T22:18:11.340Z,12.56
2024-05-09T22:23:33.762Z,12.51
2024-05-09T22:28:55.706Z,12.36
2024-05-09T22:34:17.730Z,12.21
2024-05-09T22:39:39.749Z,11.96
2024-05-09T22:45:01.723Z,11.84
2024-05-09T22:50:26.992Z,11.69
2024-05-09T22:55:53.484Z,11.72
2024-05-09T23:01:15.962Z,11.60
2024-05-09T23:06:40.874Z,11.62
2024-05-09T23:12:02.891Z,11.52
2024-05-09T23:17:24.847Z,11.34
2024-05-09T23:22:46.755Z,11.38
2024-05-09T23:28:09.338Z,11.35
2024-05-09T23:33:31.593Z,11.08
2024-05-09T23:38:53.532Z,10.93
2024-05-09T23:44:15.442Z,10.93
2024-05-09T23:49:37.381Z,10.81
2024-05-09T23:54:59.655Z,10.72
